Time;durP1;ratioP1;P1;durP2;ratioP2;P2;SDS_P1;SDS_P2;PMS_P1;PMS_P2;Temp;Humidity;BMP_temperature;BMP_pressure;BME280_temperature;BME280_humidity;BME280_pressure;Samples;Min_cycle;Max_cycle;Signal;HPM_P1;HPM_P2
2021/11/16 00:01:37;;;;;;;5.25;2.97;;;;;;;;;;4976380;28;20045;-74
2021/11/16 00:04:06;;;;;;;6.47;3.47;;;;;;;;;;4974754;28;20039;-73
2021/11/16 00:06:34;;;;;;;5.85;3.20;;;;;;;;;;4975638;28;20043;-74
2021/11/16 00:09:05;;;;;;;6.05;2.85;;;;;;;;;;4976027;28;20118;-75
2021/11/16 00:11:33;;;;;;;5.90;3.45;;;;;;;;;;4976005;28;20086;-74
2021/11/16 00:14:01;;;;;;;5.75;3.10;;;;;;;;;;4976130;28;20097;-74
2021/11/16 00:16:28;;;;;;;5.22;3.22;;;;;;;;;;4975791;28;20047;-74
2021/11/16 00:19:01;;;;;;;8.10;2.80;;;;;;;;;;4975944;28;20437;-74
2021/11/16 00:21:29;;;;;;;4.35;2.80;;;;;;;;;;4974250;28;20121;-74
2021/11/16 00:23:58;;;;;;;3.60;2.60;;;;;;;;;;4975541;28;20039;-74
2021/11/16 00:26:25;;;;;;;4.97;3.05;;;;;;;;;;4975476;28;20412;-74
2021/11/16 00:28:57;;;;;;;5.90;2.90;;;;;;;;;;4975901;28;20126;-75
2021/11/16 00:31:24;;;;;;;4.47;3.00;;;;;;;;;;4975674;28;20122;-75
2021/11/16 00:33:53;;;;;;;5.35;3.03;;;;;;;;;;4975384;28;20071;-74
2021/11/16 00:36:21;;;;;;;4.63;3.10;;;;;;;;;;4974284;28;20045;-74
2021/11/16 00:38:48;;;;;;;5.93;2.97;;;;;;;;;;4975347;28;20383;-74
2021/11/16 00:41:16;;;;;;;4.57;3.17;;;;;;;;;;4975760;28;20117;-74
2021/11/16 00:43:44;;;;;;;6.65;3.30;;;;;;;;;;4975145;28;20039;-73
2021/11/16 00:46:11;;;;;;;8.55;3.13;;;;;;;;;;4975216;28;20045;-74
2021/11/16 00:48:39;;;;;;;7.32;3.28;;;;;;;;;;4975513;28;20137;-74
2021/11/16 00:51:09;;;;;;;6.55;2.85;;;;;;;;;;4965173;28;20047;-74
2021/11/16 00:53:37;;;;;;;4.50;2.95;;;;;;;;;;4955506;29;20043;-75
2021/11/16 00:56:06;;;;;;;5.18;3.10;;;;;;;;;;4955386;29;20070;-73
2021/11/16 00:58:36;;;;;;;6.13;2.70;;;;;;;;;;4955482;29;20047;-74
2021/11/16 01:01:04;;;;;;;3.92;2.72;;;;;;;;;;4955165;28;20447;-74
2021/11/16 01:03:34;;;;;;;5.40;2.90;;;;;;;;;;4955355;29;20070;-74
2021/11/16 01:06:01;;;;;;;5.03;2.58;;;;;;;;;;4955314;28;20175;-75
2021/11/16 01:08:29;;;;;;;4.45;2.67;;;;;;;;;;4955235;29;20054;-74
2021/11/16 01:10:57;;;;;;;7.25;2.40;;;;;;;;;;4955178;29;20122;-75
2021/11/16 01:13:27;;;;;;;4.88;2.92;;;;;;;;;;4955742;28;20376;-74
2021/11/16 01:15:55;;;;;;;7.40;3.35;;;;;;;;;;4954153;29;20048;-74
2021/11/16 01:18:25;;;;;;;9.32;3.38;;;;;;;;;;4955625;29;20486;-75
2021/11/16 01:20:54;;;;;;;4.57;3.20;;;;;;;;;;4955824;29;20053;-74
2021/11/16 01:23:22;;;;;;;6.15;3.40;;;;;;;;;;4954915;29;20035;-74
2021/11/16 01:25:52;;;;;;;3.85;3.00;;;;;;;;;;4955271;28;20533;-75
2021/11/16 01:28:25;;;;;;;4.35;3.05;;;;;;;;;;4955275;28;20043;-74
2021/11/16 01:30:55;;;;;;;4.43;2.70;;;;;;;;;;4955391;28;20177;-74
2021/11/16 01:33:29;;;;;;;6.07;2.83;;;;;;;;;;4955178;28;20051;-73
2021/11/16 01:35:57;;;;;;;8.82;3.45;;;;;;;;;;4955213;28;20513;-74
2021/11/16 01:38:26;;;;;;;3.42;2.88;;;;;;;;;;4955295;28;20039;-74
2021/11/16 01:40:54;;;;;;;6.45;3.10;;;;;;;;;;4955269;28;20073;-73
2021/11/16 01:43:22;;;;;;;5.82;3.00;;;;;;;;;;4955015;29;20053;-74
2021/11/16 01:45:58;;;;;;;6.05;2.72;;;;;;;;;;4954509;28;20051;-74
2021/11/16 01:48:26;;;;;;;4.68;2.53;;;;;;;;;;4954721;28;20043;-74
2021/11/16 01:50:53;;;;;;;4.28;2.47;;;;;;;;;;4955194;29;20043;-74
2021/11/16 01:53:22;;;;;;;7.03;2.78;;;;;;;;;;4955033;28;20126;-74
2021/11/16 01:55:50;;;;;;;3.30;2.40;;;;;;;;;;4955121;29;20043;-74
2021/11/16 01:58:18;;;;;;;6.05;3.10;;;;;;;;;;4954890;29;20049;-73
2021/11/16 02:00:46;;;;;;;8.70;3.17;;;;;;;;;;4955023;28;20039;-74
2021/11/16 02:03:16;;;;;;;4.93;2.90;;;;;;;;;;4954137;29;20090;-74
2021/11/16 02:06:11;;;;;;;5.15;2.83;;;;;;;;;;4954822;28;20106;-74
2021/11/16 02:08:39;;;;;;;5.53;2.85;;;;;;;;;;4955288;28;20617;-74
2021/11/16 02:11:07;;;;;;;3.65;2.72;;;;;;;;;;4954932;28;20494;-73
2021/11/16 02:13:37;;;;;;;8.10;3.13;;;;;;;;;;4954952;28;20039;-75
2021/11/16 02:16:07;;;;;;;4.33;2.93;;;;;;;;;;4954798;28;20043;-74
2021/11/16 02:18:37;;;;;;;7.03;2.88;;;;;;;;;;4954671;29;20592;-73
2021/11/16 02:21:05;;;;;;;4.80;3.05;;;;;;;;;;4954428;29;20118;-74
2021/11/16 02:23:33;;;;;;;4.07;2.58;;;;;;;;;;4954712;29;20054;-73
2021/11/16 02:26:03;;;;;;;3.63;2.60;;;;;;;;;;4954678;28;20046;-74
2021/11/16 02:28:31;;;;;;;5.93;3.00;;;;;;;;;;4954609;29;20051;-73
2021/11/16 02:31:00;;;;;;;4.10;2.45;;;;;;;;;;4954498;29;20055;-74
2021/11/16 02:33:28;;;;;;;3.22;2.55;;;;;;;;;;4954596;29;20051;-74
2021/11/16 02:35:55;;;;;;;6.03;2.85;;;;;;;;;;4954613;28;20039;-73
2021/11/16 02:38:23;;;;;;;4.57;2.50;;;;;;;;;;4955011;29;20051;-74
2021/11/16 02:40:53;;;;;;;4.00;2.65;;;;;;;;;;4954521;28;20047;-74
2021/11/16 02:43:21;;;;;;;4.93;2.33;;;;;;;;;;4954183;28;20039;-75
2021/11/16 02:45:49;;;;;;;3.85;2.45;;;;;;;;;;4954216;29;20052;-75
2021/11/16 02:48:19;;;;;;;5.32;2.65;;;;;;;;;;4954311;28;20071;-74
2021/11/16 02:50:48;;;;;;;3.75;2.50;;;;;;;;;;4954295;29;20426;-74
2021/11/16 02:53:17;;;;;;;6.03;2.30;;;;;;;;;;4954764;29;20186;-73
2021/11/16 02:55:46;;;;;;;5.10;2.40;;;;;;;;;;4954179;29;20039;-74
2021/11/16 02:58:14;;;;;;;4.40;2.35;;;;;;;;;;4955071;28;20126;-74
2021/11/16 03:00:44;;;;;;;3.50;2.40;;;;;;;;;;4957513;29;20075;-73
2021/11/16 03:03:14;;;;;;;3.13;1.92;;;;;;;;;;4957627;28;20039;-74
2021/11/16 03:05:42;;;;;;;8.02;2.97;;;;;;;;;;4956791;29;20082;-73
2021/11/16 03:08:18;;;;;;;4.82;2.92;;;;;;;;;;4957774;28;20047;-73
2021/11/16 03:10:46;;;;;;;3.63;2.80;;;;;;;;;;4957916;28;20047;-74
2021/11/16 03:13:14;;;;;;;5.55;2.97;;;;;;;;;;4957637;29;20047;-74
2021/11/16 03:15:42;;;;;;;8.27;3.30;;;;;;;;;;4957317;29;20364;-73
2021/11/16 03:18:11;;;;;;;7.45;3.17;;;;;;;;;;4972806;28;20098;-74
2021/11/16 03:20:41;;;;;;;5.75;2.88;;;;;;;;;;4957422;28;20039;-74
2021/11/16 03:23:21;;;;;;;5.07;3.33;;;;;;;;;;4957290;29;21054;-73
2021/11/16 03:25:57;;;;;;;6.70;3.10;;;;;;;;;;4957647;28;20058;-74
2021/11/16 03:28:27;;;;;;;7.45;3.40;;;;;;;;;;4957477;28;20054;-75
2021/11/16 03:30:55;;;;;;;5.40;3.58;;;;;;;;;;4957151;28;20051;-74
2021/11/16 03:33:24;;;;;;;6.97;3.30;;;;;;;;;;4957462;28;20130;-74
2021/11/16 03:35:53;;;;;;;3.92;3.13;;;;;;;;;;4957399;29;20043;-73
2021/11/16 03:38:22;;;;;;;4.50;3.03;;;;;;;;;;4957628;29;20044;-74
2021/11/16 03:40:52;;;;;;;4.13;3.13;;;;;;;;;;4957331;28;20043;-73
2021/11/16 03:43:20;;;;;;;3.47;2.75;;;;;;;;;;4956972;28;20122;-74
2021/11/16 03:45:52;;;;;;;5.55;2.83;;;;;;;;;;4956434;28;20050;-75
2021/11/16 03:48:20;;;;;;;6.30;2.92;;;;;;;;;;4957212;28;20047;-73
2021/11/16 03:50:48;;;;;;;5.85;2.90;;;;;;;;;;4957299;29;20043;-74
2021/11/16 03:53:16;;;;;;;3.45;2.70;;;;;;;;;;4956712;28;20055;-74
2021/11/16 03:55:44;;;;;;;4.32;3.05;;;;;;;;;;4968979;28;20118;-75
2021/11/16 03:58:14;;;;;;;3.20;2.72;;;;;;;;;;4976103;28;20038;-73
2021/11/16 04:00:46;;;;;;;4.10;2.75;;;;;;;;;;4976343;28;20402;-73
2021/11/16 04:03:15;;;;;;;5.13;3.00;;;;;;;;;;4975894;28;20051;-74
2021/11/16 04:05:45;;;;;;;5.18;3.15;;;;;;;;;;4975922;28;20053;-74
2021/11/16 04:08:14;;;;;;;3.50;2.67;;;;;;;;;;4976175;28;20050;-75
2021/11/16 04:10:42;;;;;;;5.28;3.30;;;;;;;;;;4975752;28;20046;-73
2021/11/16 04:13:12;;;;;;;4.18;3.42;;;;;;;;;;4975590;28;20058;-74
2021/11/16 04:15:40;;;;;;;5.00;3.08;;;;;;;;;;4975923;28;20047;-73
2021/11/16 04:18:08;;;;;;;3.78;3.10;;;;;;;;;;4975849;28;20053;-73
2021/11/16 04:20:37;;;;;;;4.40;2.90;;;;;;;;;;4975978;28;20043;-74
2021/11/16 04:23:08;;;;;;;4.47;3.00;;;;;;;;;;4975306;28;20043;-73
2021/11/16 04:25:37;;;;;;;4.72;3.22;;;;;;;;;;4974448;28;20141;-73
2021/11/16 04:28:06;;;;;;;5.25;3.30;;;;;;;;;;4975240;28;20047;-74
2021/11/16 04:30:35;;;;;;;5.00;3.30;;;;;;;;;;4975171;28;20480;-73
2021/11/16 04:33:04;;;;;;;9.02;4.18;;;;;;;;;;4975556;28;20043;-73
2021/11/16 04:35:32;;;;;;;5.10;3.60;;;;;;;;;;4975496;28;20057;-74
2021/11/16 04:38:04;;;;;;;4.72;3.50;;;;;;;;;;4975615;28;20474;-73
2021/11/16 04:40:35;;;;;;;3.78;3.20;;;;;;;;;;4975347;28;20039;-73
2021/11/16 04:43:07;;;;;;;6.45;3.10;;;;;;;;;;4974602;28;20038;-73
2021/11/16 04:45:36;;;;;;;6.22;3.80;;;;;;;;;;4975702;28;20057;-73
2021/11/16 04:48:19;;;;;;;5.63;4.25;;;;;;;;;;4975381;28;20050;-73
2021/11/16 05:04:44;;;;;;;9.07;3.95;;;;;;;;;;4974854;28;20451;-73
2021/11/16 05:07:15;;;;;;;7.00;4.10;;;;;;;;;;4974795;28;20505;-73
2021/11/16 05:09:47;;;;;;;5.82;4.30;;;;;;;;;;4974701;28;20055;-73
2021/11/16 05:12:14;;;;;;;6.47;3.70;;;;;;;;;;4974363;28;20053;-73
2021/11/16 05:14:42;;;;;;;6.97;3.75;;;;;;;;;;4974777;28;20487;-75
2021/11/16 05:17:09;;;;;;;6.00;3.83;;;;;;;;;;4974926;28;20504;-75
2021/11/16 05:19:37;;;;;;;5.53;3.75;;;;;;;;;;4974725;28;20043;-73
2021/11/16 05:22:06;;;;;;;9.48;3.65;;;;;;;;;;4973669;28;20053;-73
2021/11/16 05:24:34;;;;;;;8.38;3.70;;;;;;;;;;4974563;28;20458;-72
2021/11/16 05:27:02;;;;;;;5.95;3.45;;;;;;;;;;4974604;28;20055;-73
2021/11/16 05:29:30;;;;;;;10.95;3.65;;;;;;;;;;4974417;28;20050;-73
2021/11/16 05:31:57;;;;;;;7.22;3.88;;;;;;;;;;4974687;28;20047;-73
2021/11/16 05:34:26;;;;;;;5.43;3.88;;;;;;;;;;4974577;28;20043;-74
2021/11/16 05:36:53;;;;;;;7.20;3.60;;;;;;;;;;4974297;28;20110;-74
2021/11/16 05:39:21;;;;;;;7.15;3.53;;;;;;;;;;4974487;28;20066;-74
2021/11/16 05:41:48;;;;;;;8.05;3.70;;;;;;;;;;4974129;28;20350;-73
2021/11/16 05:44:17;;;;;;;10.45;3.85;;;;;;;;;;4974218;28;20540;-73
2021/11/16 05:46:47;;;;;;;10.13;4.15;;;;;;;;;;4974167;28;20121;-73
2021/11/16 05:49:14;;;;;;;23.63;4.93;;;;;;;;;;4974493;28;20129;-74
2021/11/16 05:51:42;;;;;;;7.78;4.28;;;;;;;;;;4973869;28;20105;-73
2021/11/16 05:54:17;;;;;;;8.38;4.72;;;;;;;;;;4974182;28;20043;-74
2021/11/16 05:56:45;;;;;;;10.55;4.53;;;;;;;;;;4973992;28;20069;-73
2021/11/16 05:59:14;;;;;;;8.88;4.15;;;;;;;;;;4974374;28;20057;-74
2021/11/16 06:01:41;;;;;;;6.93;4.03;;;;;;;;;;4973951;28;20516;-74
2021/11/16 06:04:09;;;;;;;10.25;4.13;;;;;;;;;;4972876;28;20546;-75
2021/11/16 06:06:39;;;;;;;8.50;4.72;;;;;;;;;;4974154;28;20039;-74
2021/11/16 06:09:12;;;;;;;9.02;4.85;;;;;;;;;;4973896;28;20053;-74
2021/11/16 06:11:39;;;;;;;7.10;4.97;;;;;;;;;;4973902;28;20043;-74
2021/11/16 06:14:07;;;;;;;9.98;5.10;;;;;;;;;;4974215;28;20046;-74
2021/11/16 06:16:35;;;;;;;13.02;5.05;;;;;;;;;;4973846;28;20054;-74
2021/11/16 06:19:06;;;;;;;11.38;5.03;;;;;;;;;;4973962;28;20035;-74
2021/11/16 06:21:33;;;;;;;8.48;5.05;;;;;;;;;;4973420;28;20042;-74
2021/11/16 06:24:01;;;;;;;8.07;5.22;;;;;;;;;;4988127;28;20038;-74
2021/11/16 06:26:32;;;;;;;11.38;4.78;;;;;;;;;;4973519;28;20053;-76
2021/11/16 06:29:01;;;;;;;11.00;5.00;;;;;;;;;;4973622;28;20047;-74
2021/11/16 06:31:29;;;;;;;13.88;5.32;;;;;;;;;;4972799;28;20122;-77
2021/11/16 06:34:03;;;;;;;8.50;4.65;;;;;;;;;;4974216;28;20053;-75
2021/11/16 06:36:36;;;;;;;5.88;4.32;;;;;;;;;;4976439;28;20445;-76
2021/11/16 06:39:05;;;;;;;12.75;4.32;;;;;;;;;;4977046;28;20126;-74
2021/11/16 06:41:34;;;;;;;7.55;4.45;;;;;;;;;;4977138;28;20050;-74
2021/11/16 06:44:01;;;;;;;6.85;4.10;;;;;;;;;;4975806;28;20410;-75
2021/11/16 06:46:30;;;;;;;9.32;4.10;;;;;;;;;;4974637;28;20046;-74
2021/11/16 06:48:59;;;;;;;9.15;4.28;;;;;;;;;;4975741;28;20070;-74
2021/11/16 06:51:28;;;;;;;12.25;4.10;;;;;;;;;;4977294;28;20054;-77
2021/11/16 06:53:59;;;;;;;12.20;3.97;;;;;;;;;;4976833;28;20043;-74
2021/11/16 06:56:28;;;;;;;5.18;3.65;;;;;;;;;;4977382;28;20081;-74
2021/11/16 06:58:56;;;;;;;11.55;3.75;;;;;;;;;;4976838;28;20073;-75
2021/11/16 07:01:23;;;;;;;7.75;3.90;;;;;;;;;;4977214;28;20467;-75
2021/11/16 07:03:55;;;;;;;11.50;4.50;;;;;;;;;;4975555;28;20097;-72
2021/11/16 07:06:26;;;;;;;16.67;4.70;;;;;;;;;;4976423;28;20047;-75
2021/11/16 07:08:56;;;;;;;8.10;3.97;;;;;;;;;;4976541;28;20043;-72
2021/11/16 07:11:25;;;;;;;8.25;3.47;;;;;;;;;;4976071;28;20047;-75
2021/11/16 07:14:03;;;;;;;9.80;4.30;;;;;;;;;;4975157;28;20142;-74
2021/11/16 07:16:32;;;;;;;9.80;4.35;;;;;;;;;;4976213;28;20566;-73
2021/11/16 07:19:02;;;;;;;8.98;4.10;;;;;;;;;;4976069;28;20046;-73
2021/11/16 07:21:42;;;;;;;10.73;4.30;;;;;;;;;;4976183;28;20126;-72
2021/11/16 07:24:12;;;;;;;9.20;4.28;;;;;;;;;;4976194;28;20475;-73
2021/11/16 07:26:42;;;;;;;10.10;4.18;;;;;;;;;;4975344;28;20047;-72
2021/11/16 07:29:16;;;;;;;8.18;3.85;;;;;;;;;;4976315;28;20066;-73
2021/11/16 07:32:02;;;;;;;5.07;3.13;;;;;;;;;;4976036;28;20047;-75
2021/11/16 07:34:31;;;;;;;7.68;2.75;;;;;;;;;;4976318;28;20126;-75
2021/11/16 07:37:00;;;;;;;6.43;2.53;;;;;;;;;;4975387;28;20043;-74
2021/11/16 07:39:28;;;;;;;3.00;1.98;;;;;;;;;;4976140;28;20042;-74
2021/11/16 07:42:04;;;;;;;10.13;6.68;;;;;;;;;;4975999;28;20046;-77
2021/11/16 07:44:32;;;;;;;2.92;2.00;;;;;;;;;;4970086;28;20062;-72
2021/11/16 07:47:00;;;;;;;7.07;2.88;;;;;;;;;;4956738;29;20035;-76
2021/11/16 07:49:27;;;;;;;5.03;2.80;;;;;;;;;;4956413;28;20047;-74
2021/11/16 07:51:56;;;;;;;6.20;2.47;;;;;;;;;;4956568;28;20442;-74
2021/11/16 07:54:23;;;;;;;6.55;2.28;;;;;;;;;;4956619;29;20039;-72
2021/11/16 07:56:53;;;;;;;7.82;3.38;;;;;;;;;;4956220;29;20039;-75
2021/11/16 07:59:24;;;;;;;7.85;3.25;;;;;;;;;;4956527;29;20039;-74
2021/11/16 08:02:05;;;;;;;5.72;2.97;;;;;;;;;;4956593;28;20122;-75
2021/11/16 08:17:44;;;;;;;9.23;3.20;;;;;;;;;;4972706;28;20537;-73
2021/11/16 08:20:15;;;;;;;10.02;3.40;;;;;;;;;;4962737;28;20054;-77
2021/11/16 08:22:45;;;;;;;2.85;2.05;;;;;;;;;;4977737;28;20058;-74
2021/11/16 08:25:13;;;;;;;12.40;3.03;;;;;;;;;;4965346;28;20035;-78
2021/11/16 08:27:45;;;;;;;7.93;3.08;;;;;;;;;;4964121;28;20437;-76
2021/11/16 08:30:16;;;;;;;4.10;1.70;;;;;;;;;;4955886;28;20150;-75
2021/11/16 08:32:45;;;;;;;6.45;2.67;;;;;;;;;;4954069;29;20047;-73
2021/11/16 08:35:16;;;;;;;11.50;2.88;;;;;;;;;;4969400;28;20617;-75
2021/11/16 08:37:44;;;;;;;7.28;3.30;;;;;;;;;;4975639;28;20049;-74
2021/11/16 08:40:21;;;;;;;11.70;4.60;;;;;;;;;;4975067;28;20057;-75
2021/11/16 08:42:52;;;;;;;8.38;3.70;;;;;;;;;;4982100;28;20482;-77
2021/11/16 08:45:25;;;;;;;8.73;4.32;;;;;;;;;;4975784;28;20078;-77
2021/11/16 08:47:55;;;;;;;11.98;3.85;;;;;;;;;;4971432;28;20101;-73
2021/11/16 08:50:28;;;;;;;13.13;3.35;;;;;;;;;;4972890;28;20051;-75
2021/11/16 08:53:00;;;;;;;9.00;3.13;;;;;;;;;;4975177;28;20050;-76
2021/11/16 08:55:33;;;;;;;8.90;3.20;;;;;;;;;;4974787;28;20117;-73
2021/11/16 08:58:10;;;;;;;6.90;2.67;;;;;;;;;;4973769;28;20042;-76
2021/11/16 09:00:43;;;;;;;5.22;2.42;;;;;;;;;;4974817;28;20122;-77
2021/11/16 09:03:41;;;;;;;11.73;3.20;;;;;;;;;;4974298;28;20043;-77
2021/11/16 09:06:20;;;;;;;11.13;3.05;;;;;;;;;;4971712;28;20154;-73
2021/11/16 09:09:00;;;;;;;7.60;2.17;;;;;;;;;;4974829;28;20126;-77
2021/11/16 09:11:27;;;;;;;8.25;2.60;;;;;;;;;;4974624;28;20137;-75
2021/11/16 09:13:56;;;;;;;8.75;2.60;;;;;;;;;;4975136;28;20125;-75
2021/11/16 09:16:30;;;;;;;8.02;2.65;;;;;;;;;;4974729;28;20459;-73
2021/11/16 09:19:00;;;;;;;10.40;2.85;;;;;;;;;;4956970;28;20070;-77
2021/11/16 09:21:36;;;;;;;10.25;2.42;;;;;;;;;;4973985;28;20409;-77
2021/11/16 09:24:06;;;;;;;8.85;2.30;;;;;;;;;;4973887;28;20058;-75
2021/11/16 09:29:22;;;;;;;6.95;2.00;;;;;;;;;;4974198;28;20038;-74
2021/11/16 09:31:50;;;;;;;6.25;2.67;;;;;;;;;;4973704;28;20129;-74
2021/11/16 09:34:18;;;;;;;6.18;2.30;;;;;;;;;;4972604;28;20053;-74
2021/11/16 09:36:54;;;;;;;5.55;2.25;;;;;;;;;;4973721;28;20427;-73
2021/11/16 09:39:23;;;;;;;5.78;2.28;;;;;;;;;;4974210;28;20039;-74
2021/11/16 09:42:01;;;;;;;5.22;1.80;;;;;;;;;;4973974;28;20077;-76
2021/11/16 09:44:31;;;;;;;3.88;1.88;;;;;;;;;;4973882;28;20216;-74
2021/11/16 09:47:00;;;;;;;6.03;2.30;;;;;;;;;;4955750;28;20484;-76
2021/11/16 09:49:49;;;;;;;5.35;2.70;;;;;;;;;;4973779;28;20590;-74
2021/11/16 09:52:18;;;;;;;4.05;1.85;;;;;;;;;;4974396;28;20047;-75
2021/11/16 09:54:50;;;;;;;5.18;2.50;;;;;;;;;;4972203;28;20046;-75
2021/11/16 09:57:20;;;;;;;3.25;2.03;;;;;;;;;;4972664;28;20418;-76
2021/11/16 09:59:49;;;;;;;3.90;1.77;;;;;;;;;;4973854;28;20494;-74
2021/11/16 10:02:22;;;;;;;4.35;1.95;;;;;;;;;;4973357;28;20124;-75
2021/11/16 10:04:54;;;;;;;7.07;2.30;;;;;;;;;;4973703;28;20042;-72
2021/11/16 10:07:22;;;;;;;8.55;2.15;;;;;;;;;;4973221;28;20043;-73
2021/11/16 10:09:51;;;;;;;7.85;2.08;;;;;;;;;;4977812;28;20043;-75
2021/11/16 10:12:23;;;;;;;6.65;1.45;;;;;;;;;;4977735;28;20057;-75
2021/11/16 10:14:52;;;;;;;6.22;1.65;;;;;;;;;;4976083;28;20043;-73
2021/11/16 10:17:20;;;;;;;4.18;1.40;;;;;;;;;;4960200;28;20051;-75
2021/11/16 10:19:48;;;;;;;5.68;1.55;;;;;;;;;;4977589;28;20073;-74
2021/11/16 10:22:16;;;;;;;6.97;1.58;;;;;;;;;;4977607;28;20118;-74
2021/11/16 10:24:45;;;;;;;3.60;1.55;;;;;;;;;;4977429;28;20516;-73
2021/11/16 10:27:18;;;;;;;4.47;1.92;;;;;;;;;;4977248;28;20082;-74
2021/11/16 10:30:03;;;;;;;2.67;1.33;;;;;;;;;;4975598;28;20485;-73
2021/11/16 10:32:31;;;;;;;7.97;1.77;;;;;;;;;;4976981;28;20133;-75
2021/11/16 10:35:21;;;;;;;3.15;1.67;;;;;;;;;;4975983;28;20055;-74
2021/11/16 10:37:54;;;;;;;6.80;2.05;;;;;;;;;;4976931;28;20046;-73
2021/11/16 10:40:23;;;;;;;1.92;1.30;;;;;;;;;;4976617;28;20042;-74
2021/11/16 10:42:53;;;;;;;3.08;1.60;;;;;;;;;;4977257;28;20051;-73
2021/11/16 10:45:21;;;;;;;2.75;1.42;;;;;;;;;;4978302;28;20093;-74
2021/11/16 10:47:49;;;;;;;3.85;1.95;;;;;;;;;;4986476;28;20042;-74
2021/11/16 10:50:18;;;;;;;3.30;1.58;;;;;;;;;;4983754;28;20146;-72
2021/11/16 10:52:56;;;;;;;4.82;1.98;;;;;;;;;;4967300;28;20413;-74
2021/11/16 10:55:55;;;;;;;5.68;1.90;;;;;;;;;;4984791;28;20072;-74
2021/11/16 10:58:27;;;;;;;5.18;2.08;;;;;;;;;;4973768;28;20051;-73
2021/11/16 11:01:01;;;;;;;5.23;1.93;;;;;;;;;;4984207;28;20066;-74
2021/11/16 11:03:32;;;;;;;3.70;2.13;;;;;;;;;;4979056;28;20051;-74
2021/11/16 11:06:06;;;;;;;4.90;2.00;;;;;;;;;;4976688;28;20042;-73
2021/11/16 11:08:55;;;;;;;5.20;2.00;;;;;;;;;;4976802;28;20049;-76
2021/11/16 11:11:27;;;;;;;3.45;1.80;;;;;;;;;;4981900;28;20054;-75
2021/11/16 11:14:02;;;;;;;8.45;2.28;;;;;;;;;;4984948;28;20038;-76
2021/11/16 11:16:32;;;;;;;6.10;2.13;;;;;;;;;;4984624;28;20406;-73
2021/11/16 11:18:59;;;;;;;3.05;1.80;;;;;;;;;;4945422;28;20049;-75
2021/11/16 11:21:43;;;;;;;5.97;2.38;;;;;;;;;;4943113;28;20125;-75
2021/11/16 11:24:23;;;;;;;7.88;2.30;;;;;;;;;;4975097;28;20078;-76
2021/11/16 11:26:57;;;;;;;3.20;1.88;;;;;;;;;;4975954;28;20121;-74
2021/11/16 11:29:42;;;;;;;7.00;2.35;;;;;;;;;;4975770;28;20146;-74
2021/11/16 11:32:17;;;;;;;7.25;1.73;;;;;;;;;;4976208;28;20050;-74
2021/11/16 11:34:50;;;;;;;5.35;1.80;;;;;;;;;;4975943;28;20071;-75
2021/11/16 11:37:18;;;;;;;4.00;2.20;;;;;;;;;;4976102;28;20164;-75
2021/11/16 11:39:47;;;;;;;10.45;1.95;;;;;;;;;;4976220;28;20467;-74
2021/11/16 11:42:15;;;;;;;8.85;2.05;;;;;;;;;;4975852;28;20406;-75
2021/11/16 11:44:54;;;;;;;6.63;1.85;;;;;;;;;;4975525;28;20050;-74
2021/11/16 11:47:28;;;;;;;3.53;1.70;;;;;;;;;;4975732;28;20066;-74
2021/11/16 11:49:59;;;;;;;4.10;2.63;;;;;;;;;;4975863;28;20049;-74
2021/11/16 11:52:26;;;;;;;3.42;1.90;;;;;;;;;;4975854;28;20070;-74
2021/11/16 11:54:54;;;;;;;4.90;2.22;;;;;;;;;;4975826;28;20047;-75
2021/11/16 11:57:23;;;;;;;4.22;1.88;;;;;;;;;;4974381;28;20479;-74
2021/11/16 11:59:53;;;;;;;4.35;1.88;;;;;;;;;;4975479;28;20053;-74
2021/11/16 12:02:21;;;;;;;2.75;1.50;;;;;;;;;;4975587;28;20049;-75
2021/11/16 12:04:51;;;;;;;3.85;2.00;;;;;;;;;;4974292;28;20062;-73
2021/11/16 12:07:19;;;;;;;6.43;2.35;;;;;;;;;;4975216;28;20553;-74
2021/11/16 12:09:50;;;;;;;5.07;2.60;;;;;;;;;;4975199;28;20153;-74
2021/11/16 12:12:19;;;;;;;3.53;1.90;;;;;;;;;;4975018;28;20106;-74
2021/11/16 12:15:07;;;;;;;3.25;1.77;;;;;;;;;;4942273;28;20043;-75
2021/11/16 12:17:48;;;;;;;6.20;1.90;;;;;;;;;;4975055;28;20122;-75
2021/11/16 12:20:34;;;;;;;4.85;1.75;;;;;;;;;;4975563;28;20043;-75
2021/11/16 12:23:08;;;;;;;5.85;2.20;;;;;;;;;;4973493;28;20346;-74
2021/11/16 12:25:35;;;;;;;3.50;2.25;;;;;;;;;;4975110;28;20049;-74
2021/11/16 12:28:22;;;;;;;4.75;1.98;;;;;;;;;;4974807;28;20042;-74
2021/11/16 12:30:50;;;;;;;3.33;1.70;;;;;;;;;;4975298;28;20049;-74
2021/11/16 12:33:37;;;;;;;6.03;1.75;;;;;;;;;;4975117;28;20049;-74
2021/11/16 12:36:14;;;;;;;6.05;1.95;;;;;;;;;;4975192;28;20047;-74
2021/11/16 12:38:43;;;;;;;2.53;1.58;;;;;;;;;;4974769;28;20046;-74
2021/11/16 12:41:30;;;;;;;6.22;1.73;;;;;;;;;;4974623;28;20070;-74
2021/11/16 12:43:59;;;;;;;7.35;2.05;;;;;;;;;;4974942;28;20043;-75
2021/11/16 12:49:32;;;;;;;5.32;1.60;;;;;;;;;;4974457;28;20058;-74
2021/11/16 12:52:05;;;;;;;7.28;1.60;;;;;;;;;;4975269;28;20053;-75
2021/11/16 12:54:34;;;;;;;1.98;1.38;;;;;;;;;;4975030;28;20129;-75
2021/11/16 12:57:13;;;;;;;4.80;1.88;;;;;;;;;;4974743;28;20057;-74
2021/11/16 12:59:47;;;;;;;4.22;1.63;;;;;;;;;;4974487;28;20070;-75
2021/11/16 13:02:40;;;;;;;5.07;1.80;;;;;;;;;;4974439;28;20066;-74
2021/11/16 13:05:07;;;;;;;;;;;;;;;;;;4966913;28;20133;-75
2021/11/16 13:07:41;;;;;;;4.60;1.40;;;;;;;;;;4974575;28;19972;-75
2021/11/16 13:10:09;;;;;;;4.13;1.60;;;;;;;;;;4974535;28;20054;-76
2021/11/16 13:12:45;;;;;;;4.28;1.42;;;;;;;;;;4974381;28;20418;-74
2021/11/16 13:15:25;;;;;;;3.90;1.35;;;;;;;;;;4974471;28;20178;-74
2021/11/16 13:17:59;;;;;;;4.75;1.50;;;;;;;;;;4973116;28;20495;-75
2021/11/16 13:20:29;;;;;;;3.20;1.27;;;;;;;;;;4974472;28;20518;-75
2021/11/16 13:22:58;;;;;;;5.60;1.73;;;;;;;;;;4974368;28;20046;-74
2021/11/16 13:25:45;;;;;;;5.07;1.50;;;;;;;;;;4974115;28;20634;-74
2021/11/16 13:31:14;;;;;;;4.23;1.80;;;;;;;;;;4974346;28;20047;-74
2021/11/16 13:33:53;;;;;;;3.45;1.45;;;;;;;;;;4974427;28;20046;-77
2021/11/16 13:36:30;;;;;;;12.93;1.73;;;;;;;;;;4956539;28;20054;-76
2021/11/16 13:39:00;;;;;;;2.70;1.60;;;;;;;;;;4973627;28;20126;-74
2021/11/16 13:41:39;;;;;;;3.30;1.80;;;;;;;;;;4974052;28;20425;-74
2021/11/16 13:44:17;;;;;;;2.97;1.50;;;;;;;;;;4973307;28;20471;-74
2021/11/16 13:46:48;;;;;;;5.13;1.63;;;;;;;;;;4973920;28;20487;-78
2021/11/16 13:49:20;;;;;;;3.88;1.52;;;;;;;;;;4988559;28;20498;-76
2021/11/16 13:51:48;;;;;;;1.77;1.37;;;;;;;;;;4993436;28;20121;-76
2021/11/16 13:54:15;;;;;;;7.10;1.65;;;;;;;;;;4992882;28;20273;-77
2021/11/16 13:56:44;;;;;;;3.83;1.55;;;;;;;;;;4993354;28;20072;-75
2021/11/16 13:59:18;;;;;;;4.57;1.50;;;;;;;;;;4993584;28;20040;-75
2021/11/16 14:01:47;;;;;;;2.80;1.38;;;;;;;;;;4991383;28;20074;-75
2021/11/16 14:04:20;;;;;;;5.75;1.60;;;;;;;;;;4960398;28;20046;-77
2021/11/16 14:06:48;;;;;;;3.95;1.67;;;;;;;;;;4993363;28;20064;-75
2021/11/16 14:09:18;;;;;;;5.90;1.58;;;;;;;;;;4975931;28;20050;-76
2021/11/16 14:11:51;;;;;;;7.80;1.77;;;;;;;;;;4993646;28;20069;-75
2021/11/16 14:14:19;;;;;;;4.80;1.30;;;;;;;;;;4993585;28;20049;-75
2021/11/16 14:16:47;;;;;;;7.25;1.70;;;;;;;;;;4992895;28;20065;-75
2021/11/16 14:19:16;;;;;;;8.05;1.90;;;;;;;;;;4976303;28;20038;-75
2021/11/16 14:21:45;;;;;;;5.75;1.67;;;;;;;;;;4993025;28;20046;-75
2021/11/16 14:24:17;;;;;;;9.20;2.28;;;;;;;;;;4975524;28;20156;-75
2021/11/16 14:26:47;;;;;;;1.52;1.38;;;;;;;;;;4991989;28;20046;-75
2021/11/16 14:29:19;;;;;;;7.85;1.92;;;;;;;;;;4993170;28;20046;-76
2021/11/16 14:31:49;;;;;;;;;;;;;;;;;;4993667;28;20538;-76
2021/11/16 14:34:21;;;;;;;7.00;1.70;;;;;;;;;;4993148;28;19921;-77
2021/11/16 14:36:50;;;;;;;5.77;3.00;;;;;;;;;;4992776;28;20126;-76
2021/11/16 14:39:21;;;;;;;11.23;1.92;;;;;;;;;;4993663;28;20637;-76
2021/11/16 14:41:58;;;;;;;3.10;1.48;;;;;;;;;;4993181;28;20038;-75
2021/11/16 14:44:27;;;;;;;2.70;1.50;;;;;;;;;;4992985;28;20044;-76
2021/11/16 14:46:56;;;;;;;11.25;1.85;;;;;;;;;;4976021;28;20401;-75
2021/11/16 14:49:27;;;;;;;6.45;1.80;;;;;;;;;;4992924;28;20042;-75
2021/11/16 14:51:57;;;;;;;2.53;1.40;;;;;;;;;;4991671;28;20429;-76
2021/11/16 14:54:28;;;;;;;5.20;1.85;;;;;;;;;;4992467;28;20038;-75
2021/11/16 14:56:56;;;;;;;3.22;1.48;;;;;;;;;;4996447;28;20117;-76
2021/11/16 14:59:25;;;;;;;5.72;1.55;;;;;;;;;;4996660;28;20043;-75
2021/11/16 15:01:54;;;;;;;2.95;1.58;;;;;;;;;;4996529;28;20537;-76
2021/11/16 15:04:44;;;;;;;5.10;1.65;;;;;;;;;;4996529;28;20061;-76
2021/11/16 15:07:18;;;;;;;5.05;1.65;;;;;;;;;;4996077;28;20503;-75
2021/11/16 15:09:56;;;;;;;5.68;1.73;;;;;;;;;;4979214;28;20078;-76
2021/11/16 15:12:24;;;;;;;4.65;1.55;;;;;;;;;;4996233;28;20054;-75
2021/11/16 15:14:53;;;;;;;6.97;1.95;;;;;;;;;;4996264;28;20049;-75
2021/11/16 15:17:22;;;;;;;6.63;1.65;;;;;;;;;;4996111;28;20069;-75
2021/11/16 15:20:02;;;;;;;5.47;2.00;;;;;;;;;;4978681;28;20466;-76
2021/11/16 15:22:54;;;;;;;7.32;1.90;;;;;;;;;;4995876;28;20054;-75
2021/11/16 15:25:26;;;;;;;5.20;2.22;;;;;;;;;;4996059;28;20053;-76
2021/11/16 15:27:55;;;;;;;4.80;2.03;;;;;;;;;;4995813;28;20121;-76
2021/11/16 15:30:24;;;;;;;5.63;2.25;;;;;;;;;;4995711;28;20047;-75
2021/11/16 15:33:01;;;;;;;14.13;2.40;;;;;;;;;;4995850;28;20044;-76
2021/11/16 15:35:38;;;;;;;3.50;1.75;;;;;;;;;;4995663;28;20038;-75
2021/11/16 15:38:08;;;;;;;9.48;2.22;;;;;;;;;;4995713;28;20049;-75
2021/11/16 15:40:36;;;;;;;8.32;2.47;;;;;;;;;;4996031;28;20121;-76
2021/11/16 15:43:18;;;;;;;5.78;2.20;;;;;;;;;;4995342;28;20038;-76